createdAt,value
2023-03-31T00:01:12.220Z,41.88
2023-03-31T00:04:04.930Z,41.71
2023-03-31T00:06:56.498Z,41.66
2023-03-31T00:09:46.637Z,41.97
2023-03-31T00:12:35.531Z,42.18
2023-03-31T00:15:24.156Z,42.56
2023-03-31T00:18:12.734Z,42.45
2023-03-31T00:21:14.511Z,41.95
2023-03-31T00:24:06.823Z,42.28
2023-03-31T00:26:55.466Z,42.04
2023-03-31T00:29:45.271Z,42.37
2023-03-31T00:32:34.323Z,42.43
2023-03-31T00:35:22.942Z,42.17
2023-03-31T00:38:14.012Z,42.01
2023-03-31T00:41:04.560Z,42.40
2023-03-31T00:44:04.258Z,42.27
2023-03-31T00:46:54.753Z,42.43
2023-03-31T00:49:45.447Z,42.58
2023-03-31T00:52:37.557Z,42.12
2023-03-31T00:55:30.465Z,42.10
2023-03-31T00:58:21.929Z,41.93
2023-03-31T01:01:10.943Z,42.44
2023-03-31T01:03:59.763Z,42.25
2023-03-31T01:06:57.390Z,42.26
2023-03-31T01:09:47.364Z,42.24
2023-03-31T01:12:39.077Z,42.34
2023-03-31T01:15:29.059Z,42.44
2023-03-31T01:18:23.243Z,42.47
2023-03-31T01:21:38.527Z,42.34
2023-03-31T01:24:54.949Z,42.16
2023-03-31T01:28:03.294Z,42.10
2023-03-31T01:31:22.608Z,42.34
2023-03-31T01:34:41.815Z,42.47
2023-03-31T01:37:57.689Z,42.49
2023-03-31T01:41:19.009Z,42.50
2023-03-31T01:44:14.942Z,42.55
2023-03-31T01:47:08.500Z,42.50
2023-03-31T01:50:00.185Z,42.63
2023-03-31T01:52:51.452Z,42.52
2023-03-31T01:55:42.930Z,42.32
2023-03-31T01:58:37.160Z,42.49
2023-03-31T02:01:31.499Z,42.34
2023-03-31T02:04:23.101Z,42.56
2023-03-31T02:07:17.509Z,42.30
2023-03-31T02:10:09.173Z,42.56
2023-03-31T02:12:58.577Z,42.65
2023-03-31T02:15:53.277Z,42.61
2023-03-31T02:18:42.045Z,42.76
2023-03-31T02:21:31.894Z,42.61
2023-03-31T02:24:21.969Z,42.19
2023-03-31T02:27:14.309Z,42.60
2023-03-31T02:30:05.094Z,42.68
2023-03-31T02:32:56.422Z,42.42
2023-03-31T02:35:45.202Z,42.36
2023-03-31T02:38:36.152Z,42.39
2023-03-31T02:41:24.824Z,42.63
2023-03-31T02:44:14.070Z,42.52
2023-03-31T02:47:02.908Z,42.49
2023-03-31T02:49:55.952Z,42.29
2023-03-31T02:52:54.022Z,42.33
2023-03-31T02:55:58.227Z,42.38
2023-03-31T02:59:02.256Z,42.36
2023-03-31T03:02:02.628Z,42.38
2023-03-31T03:05:14.894Z,42.33
2023-03-31T03:08:10.957Z,42.33
2023-03-31T03:11:08.093Z,42.50
2023-03-31T03:14:02.514Z,42.61
2023-03-31T03:16:55.684Z,42.26
2023-03-31T03:19:44.931Z,42.37
2023-03-31T03:22:35.765Z,42.21
2023-03-31T03:25:24.788Z,42.55
2023-03-31T03:28:14.586Z,42.27
2023-03-31T03:31:05.033Z,42.26
2023-03-31T03:33:54.370Z,42.35
2023-03-31T03:36:43.732Z,42.21
2023-03-31T03:39:34.674Z,42.04
2023-03-31T03:42:23.522Z,42.26
2023-03-31T03:45:13.730Z,42.24
2023-03-31T03:48:02.807Z,42.31
2023-03-31T03:50:53.602Z,42.46
2023-03-31T03:53:42.573Z,42.23
2023-03-31T03:56:35.748Z,42.40
2023-03-31T03:59:24.557Z,41.98
2023-03-31T04:02:15.016Z,42.57
2023-03-31T04:05:05.234Z,42.64
2023-03-31T04:07:54.433Z,42.72
2023-03-31T04:10:49.225Z,42.35
2023-03-31T04:13:40.538Z,41.95
2023-03-31T04:16:29.524Z,42.36
2023-03-31T04:19:19.103Z,42.06
2023-03-31T04:22:12.481Z,41.93
2023-03-31T04:25:01.342Z,41.98
2023-03-31T04:27:55.192Z,42.07
2023-03-31T04:30:45.736Z,42.26
2023-03-31T04:33:38.681Z,42.31
2023-03-31T04:36:29.127Z,42.55
2023-03-31T04:39:28.872Z,42.46
2023-03-31T04:42:19.189Z,42.20
2023-03-31T04:45:09.684Z,42.25
2023-03-31T04:47:59.894Z,42.27
2023-03-31T04:50:52.339Z,42.31
2023-03-31T04:53:42.457Z,42.13
2023-03-31T04:56:34.131Z,42.29
2023-03-31T04:59:22.910Z,42.51
2023-03-31T05:02:11.635Z,42.14
2023-03-31T05:05:02.290Z,42.20
2023-03-31T05:07:53.211Z,42.73
2023-03-31T05:10:41.850Z,42.53
2023-03-31T05:13:30.509Z,42.40
2023-03-31T05:16:19.084Z,42.82
2023-03-31T05:19:07.685Z,42.55
2023-03-31T05:21:57.880Z,42.71
2023-03-31T05:24:46.625Z,42.24
2023-03-31T05:27:35.650Z,42.18
2023-03-31T05:30:26.279Z,42.14
2023-03-31T05:33:14.898Z,42.43
2023-03-31T05:36:03.954Z,42.39
2023-03-31T05:38:54.118Z,42.04
2023-03-31T05:41:42.859Z,42.14
2023-03-31T05:44:31.504Z,42.25
2023-03-31T05:47:20.347Z,42.25
2023-03-31T05:50:09.597Z,42.38
2023-03-31T05:52:59.361Z,42.56
2023-03-31T05:55:49.434Z,42.42
2023-03-31T05:58:38.660Z,42.43
2023-03-31T06:01:27.298Z,42.52
2023-03-31T06:04:16.119Z,42.43
2023-03-31T06:07:05.524Z,42.38
2023-03-31T06:09:54.136Z,42.81
2023-03-31T06:12:44.215Z,42.47
2023-03-31T06:15:32.843Z,42.62
2023-03-31T06:18:21.505Z,42.23
2023-03-31T06:21:12.469Z,42.21
2023-03-31T06:24:01.208Z,42.09
2023-03-31T06:26:51.232Z,42.44
2023-03-31T06:29:42.803Z,42.46
2023-03-31T06:32:31.461Z,42.55
2023-03-31T06:35:20.120Z,42.61
2023-03-31T06:38:09.225Z,42.57
2023-03-31T06:40:57.885Z,42.46
2023-03-31T06:43:46.683Z,42.29
2023-03-31T06:46:37.088Z,42.33
2023-03-31T06:49:26.337Z,42.44
2023-03-31T06:52:15.538Z,42.25
2023-03-31T06:55:04.369Z,41.98
2023-03-31T06:57:53.224Z,42.34
2023-03-31T07:00:42.024Z,42.46
2023-03-31T07:03:32.564Z,42.15
2023-03-31T07:06:21.577Z,41.94
2023-03-31T07:09:10.302Z,42.20
2023-03-31T07:11:59.165Z,42.55
2023-03-31T07:14:47.817Z,42.55
2023-03-31T07:17:37.474Z,42.51
2023-03-31T07:20:27.654Z,42.53
2023-03-31T07:23:16.263Z,42.25
2023-03-31T07:26:05.155Z,42.38
2023-03-31T07:28:56.605Z,42.07
2023-03-31T07:31:45.423Z,42.17
2023-03-31T07:34:36.281Z,42.36
2023-03-31T07:37:27.602Z,42.31
2023-03-31T07:40:18.138Z,42.33
2023-03-31T07:43:09.186Z,42.38
2023-03-31T07:45:58.250Z,42.48
2023-03-31T07:48:48.016Z,42.41
2023-03-31T07:51:37.052Z,42.12
2023-03-31T07:54:27.695Z,42.27
2023-03-31T07:57:16.770Z,42.00
2023-03-31T08:00:07.497Z,42.34
2023-03-31T08:02:56.191Z,42.14
2023-03-31T08:05:45.172Z,42.06
2023-03-31T08:08:34.544Z,42.07
2023-03-31T08:11:24.946Z,42.21
2023-03-31T08:14:13.673Z,41.93
2023-03-31T08:17:03.148Z,41.86
2023-03-31T08:19:52.112Z,41.89
2023-03-31T08:22:41.344Z,42.01
2023-03-31T08:25:29.931Z,41.92
2023-03-31T08:28:20.383Z,41.85
2023-03-31T08:31:10.646Z,42.21
2023-03-31T08:33:59.293Z,41.80
2023-03-31T08:36:48.916Z,41.86
2023-03-31T08:39:37.920Z,41.90
2023-03-31T08:42:31.355Z,41.62
2023-03-31T08:45:24.187Z,41.79
2023-03-31T08:48:21.927Z,41.74
2023-03-31T08:51:16.230Z,41.76
2023-03-31T08:54:08.149Z,41.78
2023-03-31T08:56:56.903Z,41.99
2023-03-31T08:59:46.192Z,41.58
2023-03-31T09:02:44.309Z,41.64
2023-03-31T09:05:59.693Z,41.92
2023-03-31T09:08:49.154Z,41.77
2023-03-31T09:11:40.739Z,41.86
2023-03-31T09:14:33.205Z,41.86
2023-03-31T09:17:25.467Z,41.62
2023-03-31T09:20:19.388Z,41.46
2023-03-31T09:23:12.819Z,41.37
2023-03-31T09:26:04.800Z,41.70
2023-03-31T09:28:54.604Z,41.54
2023-03-31T09:31:45.792Z,41.62
2023-03-31T09:34:37.713Z,41.83
2023-03-31T09:37:30.290Z,41.58
2023-03-31T09:40:21.013Z,41.21
2023-03-31T09:43:14.150Z,41.70
2023-03-31T09:46:09.624Z,41.39
2023-03-31T09:49:06.231Z,41.53
2023-03-31T09:52:03.571Z,41.33
2023-03-31T09:54:55.076Z,41.36
2023-03-31T09:57:43.690Z,41.50
2023-03-31T10:00:32.278Z,41.57
2023-03-31T10:03:20.926Z,41.24
2023-03-31T10:06:11.593Z,41.26
2023-03-31T10:09:02.974Z,41.22
2023-03-31T10:11:57.727Z,41.17
2023-03-31T10:14:47.986Z,41.51
2023-03-31T10:17:47.108Z,41.64
2023-03-31T10:20:42.984Z,41.28
2023-03-31T10:23:33.473Z,41.31
2023-03-31T10:26:23.363Z,41.28
2023-03-31T10:29:14.569Z,40.88
2023-03-31T10:32:06.708Z,41.08
2023-03-31T10:34:56.489Z,41.16
2023-03-31T10:37:45.126Z,41.21
2023-03-31T10:40:35.239Z,40.82
2023-03-31T10:43:27.749Z,40.86
2023-03-31T10:46:17.760Z,40.81
2023-03-31T10:49:17.345Z,40.76
2023-03-31T10:52:17.462Z,41.32
2023-03-31T10:55:13.777Z,41.17
2023-03-31T10:58:08.057Z,41.08
2023-03-31T11:01:06.959Z,41.29
2023-03-31T11:04:07.014Z,40.98
2023-03-31T11:06:59.246Z,41.02
2023-03-31T11:09:57.862Z,40.83
2023-03-31T11:12:51.910Z,41.06
2023-03-31T11:15:44.484Z,41.25
2023-03-31T11:18:38.458Z,41.09
2023-03-31T11:21:34.648Z,40.99
2023-03-31T11:24:33.724Z,40.82
2023-03-31T11:27:32.784Z,41.02
2023-03-31T11:30:24.351Z,40.95
2023-03-31T11:33:28.726Z,40.85
2023-03-31T11:36:33.112Z,41.10
2023-03-31T11:39:33.716Z,40.70
2023-03-31T11:42:25.492Z,40.69
2023-03-31T11:45:18.502Z,41.01
2023-03-31T11:48:12.669Z,40.87
2023-03-31T11:51:03.778Z,40.97
2023-03-31T11:53:55.517Z,40.92
2023-03-31T11:56:44.639Z,40.92
2023-03-31T11:59:34.080Z,41.16
2023-03-31T12:02:36.890Z,41.19
2023-03-31T12:05:28.821Z,41.34
2023-03-31T12:08:19.769Z,41.29
2023-03-31T12:11:15.713Z,41.25
2023-03-31T12:14:16.162Z,41.17
2023-03-31T12:17:12.260Z,41.56
2023-03-31T12:20:07.242Z,41.49
2023-03-31T12:22:57.468Z,41.46
2023-03-31T12:25:52.060Z,41.49
2023-03-31T12:28:43.630Z,42.00
2023-03-31T12:31:33.625Z,41.93
2023-03-31T12:34:26.677Z,41.82
2023-03-31T12:37:49.079Z,41.76
2023-03-31T12:40:44.949Z,41.59
2023-03-31T12:43:59.527Z,41.58
2023-03-31T12:47:19.343Z,41.99
2023-03-31T12:50:28.644Z,41.72
2023-03-31T12:53:25.218Z,41.66
2023-03-31T12:56:14.011Z,41.52
2023-03-31T12:59:34.597Z,41.94
2023-03-31T13:02:26.687Z,41.72
2023-03-31T13:05:48.343Z,41.52
2023-03-31T13:08:55.097Z,41.75
2023-03-31T13:11:47.860Z,41.84
2023-03-31T13:14:40.245Z,41.53
2023-03-31T13:17:31.445Z,41.44
2023-03-31T13:20:32.957Z,41.73
2023-03-31T13:23:25.509Z,41.69
2023-03-31T13:26:41.669Z,41.83
2023-03-31T13:29:43.665Z,41.81
2023-03-31T13:32:32.460Z,41.82
2023-03-31T13:35:22.685Z,41.56
2023-03-31T13:38:17.370Z,41.94
2023-03-31T13:41:28.691Z,41.99
2023-03-31T13:44:36.625Z,41.52
2023-03-31T13:47:42.441Z,41.59
2023-03-31T13:50:55.171Z,41.01
2023-03-31T13:54:32.132Z,40.62
2023-03-31T13:57:42.030Z,40.33
2023-03-31T14:00:38.969Z,40.36
2023-03-31T14:03:51.525Z,40.04
2023-03-31T14:06:43.223Z,39.14
2023-03-31T14:09:34.084Z,38.60
2023-03-31T14:12:24.453Z,37.64
2023-03-31T14:15:20.590Z,37.52
2023-03-31T14:18:09.746Z,38.05
2023-03-31T14:21:09.473Z,38.41
2023-03-31T14:24:04.880Z,38.41
2023-03-31T14:27:01.121Z,39.82
2023-03-31T14:29:53.179Z,38.95
2023-03-31T14:32:47.988Z,39.40
2023-03-31T14:35:39.412Z,39.68
2023-03-31T14:38:30.075Z,39.70
2023-03-31T14:41:21.283Z,39.69
2023-03-31T14:44:16.582Z,40.02
2023-03-31T14:47:06.168Z,39.87
2023-03-31T14:50:02.232Z,39.80
2023-03-31T14:52:52.480Z,39.49
2023-03-31T14:55:57.538Z,39.26
2023-03-31T14:58:50.572Z,38.87
2023-03-31T15:01:40.067Z,38.71
2023-03-31T15:04:41.259Z,38.43
2023-03-31T15:07:31.513Z,38.63
2023-03-31T15:10:22.130Z,38.54
2023-03-31T15:13:13.897Z,38.55
2023-03-31T15:16:02.642Z,38.83
2023-03-31T15:18:55.324Z,39.09
2023-03-31T15:21:46.458Z,38.68
2023-03-31T15:24:35.157Z,38.81
2023-03-31T15:27:37.062Z,39.04
2023-03-31T15:30:42.935Z,39.10
2023-03-31T15:33:36.568Z,39.05
2023-03-31T15:36:33.936Z,39.41
2023-03-31T15:39:25.230Z,39.74
2023-03-31T15:42:13.981Z,39.72
2023-03-31T15:45:42.289Z,39.82
2023-03-31T15:48:34.840Z,39.33
2023-03-31T15:51:27.371Z,39.27
2023-03-31T15:54:31.794Z,39.47
2023-03-31T15:57:22.260Z,39.53
2023-03-31T16:00:47.294Z,40.24
2023-03-31T16:03:38.490Z,40.60
2023-03-31T16:06:34.453Z,40.46
2023-03-31T16:09:26.317Z,41.09
2023-03-31T16:12:18.228Z,40.77
2023-03-31T16:15:10.793Z,40.82
2023-03-31T16:18:03.452Z,40.17
2023-03-31T16:20:56.093Z,40.31
2023-03-31T16:23:45.935Z,40.43
2023-03-31T16:26:35.356Z,40.25
2023-03-31T16:29:24.273Z,39.44
2023-03-31T16:32:14.824Z,39.52
2023-03-31T16:35:07.512Z,39.44
2023-03-31T16:37:56.379Z,39.58
2023-03-31T16:40:46.511Z,39.61
2023-03-31T16:43:35.226Z,39.67
2023-03-31T16:46:24.858Z,39.84
2023-03-31T16:49:13.644Z,39.88
2023-03-31T16:52:05.003Z,39.86
2023-03-31T16:54:53.683Z,39.64
2023-03-31T16:57:42.441Z,39.56
2023-03-31T17:00:31.979Z,39.60
2023-03-31T17:03:20.797Z,39.46
2023-03-31T17:06:11.487Z,39.66
2023-03-31T17:09:01.732Z,39.72
2023-03-31T17:11:50.415Z,39.53
2023-03-31T17:14:39.662Z,40.57
2023-03-31T17:17:28.653Z,40.42
2023-03-31T17:20:21.442Z,40.21
2023-03-31T17:23:10.065Z,40.23
2023-03-31T17:26:00.480Z,40.17
2023-03-31T17:28:49.124Z,40.13
2023-03-31T17:31:37.921Z,40.02
2023-03-31T17:34:26.539Z,40.75
2023-03-31T17:37:15.281Z,40.71
2023-03-31T17:40:04.796Z,40.95
2023-03-31T17:42:54.891Z,40.65
2023-03-31T17:45:43.512Z,41.08
2023-03-31T17:48:34.105Z,41.18
2023-03-31T17:51:23.166Z,41.45
2023-03-31T17:54:12.361Z,41.24
2023-03-31T17:57:01.587Z,41.39
2023-03-31T17:59:51.632Z,41.86
2023-03-31T18:02:43.406Z,42.23
2023-03-31T18:05:33.435Z,41.87
2023-03-31T18:08:22.011Z,41.92
2023-03-31T18:11:11.783Z,41.93
2023-03-31T18:14:02.661Z,41.63
2023-03-31T18:16:52.994Z,41.55
2023-03-31T18:19:41.611Z,41.55
2023-03-31T18:22:30.472Z,41.10
2023-03-31T18:25:19.320Z,41.19
2023-03-31T18:28:08.741Z,41.06
2023-03-31T18:30:57.851Z,40.97
2023-03-31T18:33:48.129Z,40.92
2023-03-31T18:36:36.889Z,40.40
2023-03-31T18:39:27.776Z,40.47
2023-03-31T18:42:18.391Z,40.29
2023-03-31T18:45:08.781Z,40.66
2023-03-31T18:47:57.439Z,40.66
2023-03-31T18:50:47.581Z,40.36
2023-03-31T18:53:37.900Z,40.09
2023-03-31T18:56:26.530Z,40.22
2023-03-31T18:59:15.158Z,40.27
2023-03-31T19:02:03.794Z,39.96
2023-03-31T19:04:55.459Z,39.83
2023-03-31T19:07:45.560Z,39.81
2023-03-31T19:10:34.411Z,40.57
2023-03-31T19:13:23.141Z,40.84
2023-03-31T19:16:12.154Z,40.80
2023-03-31T19:19:01.742Z,40.90
2023-03-31T19:21:52.774Z,41.00
2023-03-31T19:24:43.872Z,39.84
2023-03-31T19:27:33.082Z,39.77
2023-03-31T19:30:25.109Z,39.42
2023-03-31T19:33:15.573Z,39.42
2023-03-31T19:36:04.483Z,39.17
2023-03-31T19:38:53.378Z,39.39
2023-03-31T19:41:44.718Z,39.48
2023-03-31T19:44:34.039Z,39.88
2023-03-31T19:47:22.992Z,39.64
2023-03-31T19:50:13.118Z,40.36
2023-03-31T19:53:01.953Z,40.14
2023-03-31T19:55:57.011Z,40.22
2023-03-31T19:58:48.182Z,39.36
2023-03-31T20:01:37.973Z,39.00
2023-03-31T20:04:26.943Z,38.83
2023-03-31T20:07:15.965Z,39.22
2023-03-31T20:10:04.693Z,39.77
2023-03-31T20:12:53.386Z,39.13
2023-03-31T20:15:43.463Z,38.76
2023-03-31T20:18:32.674Z,38.67
2023-03-31T20:21:23.215Z,38.61
2023-03-31T20:24:16.776Z,38.55
2023-03-31T20:27:05.600Z,38.41
2023-03-31T20:29:54.337Z,38.92
2023-03-31T20:32:44.502Z,39.23
2023-03-31T20:35:34.389Z,39.23
2023-03-31T20:38:22.988Z,38.74
2023-03-31T20:41:12.595Z,38.53
2023-03-31T20:44:01.570Z,38.46
2023-03-31T20:46:52.466Z,38.45
2023-03-31T20:49:43.228Z,38.09
2023-03-31T20:52:32.135Z,38.35
2023-03-31T20:55:20.685Z,38.75
2023-03-31T20:58:09.243Z,38.82
2023-03-31T21:00:59.395Z,39.04
2023-03-31T21:03:48.917Z,39.69
2023-03-31T21:06:40.600Z,39.47
2023-03-31T21:09:29.200Z,39.24
2023-03-31T21:12:17.738Z,39.17
2023-03-31T21:15:07.586Z,39.36
2023-03-31T21:17:56.223Z,39.21
2023-03-31T21:20:51.323Z,39.39
2023-03-31T21:23:41.728Z,39.41
2023-03-31T21:26:30.426Z,39.76
2023-03-31T21:29:18.999Z,39.89
2023-03-31T21:32:09.139Z,40.34
2023-03-31T21:34:58.319Z,40.57
2023-03-31T21:37:47.526Z,40.87
2023-03-31T21:40:37.850Z,40.86
2023-03-31T21:43:27.416Z,40.84
2023-03-31T21:46:17.673Z,40.85
2023-03-31T21:49:06.442Z,40.91
2023-03-31T21:51:55.020Z,40.82
2023-03-31T21:54:43.647Z,40.68
2023-03-31T21:57:33.755Z,40.92
2023-03-31T22:00:22.943Z,40.86
2023-03-31T22:06:08.240Z,40.61
2023-03-31T22:08:56.892Z,40.73
2023-03-31T22:11:46.885Z,41.50
2023-03-31T22:14:40.001Z,41.87
2023-03-31T22:17:29.602Z,42.06
2023-03-31T22:20:18.404Z,42.01
2023-03-31T22:23:07.509Z,42.11
2023-03-31T22:25:56.550Z,42.55
2023-03-31T22:28:45.517Z,42.69
2023-03-31T22:31:36.943Z,42.40
2023-03-31T22:34:25.580Z,42.33
2023-03-31T22:37:14.639Z,42.72
2023-03-31T22:40:03.329Z,42.95
2023-03-31T22:42:54.936Z,42.75
2023-03-31T22:45:43.570Z,43.04
2023-03-31T22:48:33.551Z,42.91
2023-03-31T22:51:22.130Z,42.79
2023-03-31T22:54:14.219Z,42.78
2023-03-31T22:57:02.928Z,42.69
2023-03-31T22:59:51.510Z,42.94
2023-03-31T23:02:40.150Z,43.05
2023-03-31T23:05:30.524Z,43.22
2023-03-31T23:08:19.467Z,42.96
2023-03-31T23:11:10.936Z,42.97
2023-03-31T23:13:59.557Z,42.94
2023-03-31T23:16:48.202Z,43.20
2023-03-31T23:19:37.153Z,42.93
2023-03-31T23:22:27.443Z,43.20
2023-03-31T23:25:16.390Z,43.30
2023-03-31T23:28:05.227Z,43.15
2023-03-31T23:30:56.693Z,43.04
2023-03-31T23:33:45.777Z,42.78
2023-03-31T23:36:34.380Z,43.06
2023-03-31T23:39:24.504Z,43.30
2023-03-31T23:42:16.144Z,43.43
2023-03-31T23:45:05.098Z,43.01
2023-03-31T23:47:53.795Z,43.47
2023-03-31T23:50:42.502Z,43.60
2023-03-31T23:53:31.119Z,43.11
2023-03-31T23:56:21.708Z,43.21
2023-03-31T23:59:10.482Z,43.32
